• Join FlightAware (Why Join?)
  • Login
  • US Flag 
11:36PM EDT


 

Airport Tracker/Info


-or-


 

Live Flight TrackerFlight Track Log ✈ C-FCPO ✈ 15-Jun-2013 ✈ CYQG - CYFD

Flight Track Log - Related Links

Times and Time Zones

All times are in EDT time to prevent confusion due to time zone crossing. See the C-FCPO flight status page for this flight to view local times or setup timezone preferences in your user account.

Time Position Orientation Groundspeed Altitude Reporting Facility
EDT Latitude Longitude Course Direction KTS MPH feet Rate Location/Type
10:50AM 42.2728 -82.9767 150° Southeast 118 136 1,000  Level Cleveland Center
10:51AM 42.2542 -82.9619 150° Southeast 113 130 1,900 720 Climbing Cleveland Center
10:52AM 42.2656 -82.9119 73° East 120 138 2,700 720 Climbing Cleveland Center
10:53AM 42.2750 -82.8675 74° East 125 144 3,400 660 Climbing Cleveland Center
10:54AM 42.2864 -82.8203 72° East 130 150 4,100 600 Climbing Cleveland Center
10:55AM 42.2956 -82.7728 75° East 130 150 4,700 600 Climbing Cleveland Center
10:56AM 42.3069 -82.7253 72° East 125 144 5,300 540 Climbing Cleveland Center
10:57AM 42.3181 -82.6781 72° East 125 144 5,800 540 Climbing Cleveland Center
10:58AM 42.3272 -82.6306 75° East 125 144 6,400 540 Climbing Cleveland Center
10:59AM 42.3386 -82.5831 72° East 125 144 6,900 420 Climbing Cleveland Center
11:00AM 42.3478 -82.5358 75° East 125 144 7,300 360 Climbing Cleveland Center
11:01AM 42.3589 -82.4911 71° East 125 144 7,700 420 Climbing Cleveland Center
11:02AM 42.3703 -82.4408 73° East 125 144 8,200 420 Climbing Cleveland Center
11:03AM 42.3814 -82.3961 71° East 125 144 8,600 360 Climbing Cleveland Center
11:04AM 42.3903 -82.3458 77° East 125 144 9,000 180 Climbing Cleveland Center
11:05AM 42.4036 -82.2956 70° East 125 144 9,000  Level Cleveland Center
11:06AM 42.4169 -82.2369 73° East 137 158 9,000  Level Cleveland Center
11:07AM 42.4303 -82.1839 71° East 142 163 9,000  Level Cleveland Center
11:08AM 42.4394 -82.1278 77° East 147 169 9,000  Level Cleveland Center
11:09AM 42.4525 -82.0775 71° East 137 158 9,100  Climbing Cleveland Center
11:10AM 42.4636 -82.0214 75° East 142 163 9,000 -60 Descending Cleveland Center
11:11AM 42.4747 -81.9681 74° East 142 163 9,000  Level Cleveland Center
11:12AM 42.4881 -81.9122 72° East 142 163 9,000  Level Cleveland Center
11:13AM 42.4989 -81.8589 75° East 142 163 9,000  Level Cleveland Center
11:14AM 42.5119 -81.8056 72° East 142 163 9,000  Level Cleveland Center
11:15AM 42.5208 -81.7550 77° East 147 169 9,000  Level Cleveland Center
11:16AM 42.5319 -81.7017 74° East 142 163 9,000  Level Cleveland Center
11:17AM 42.5450 -81.6428 73° East 142 163 9,000  Level Cleveland Center
11:18AM 42.5558 -81.5922 74° East 142 163 9,000  Level Cleveland Center
11:19AM 42.5667 -81.5389 75° East 142 163 9,000  Level Cleveland Center
11:20AM 42.5797 -81.4856 72° East 147 169 9,000  Level Cleveland Center
11:21AM 42.5925 -81.4292 73° East 141 162 9,000  Level Cleveland Center
11:22AM 42.6033 -81.3814 73° East 141 162 9,000  Level Cleveland Center
11:23AM 42.6142 -81.3253 75° East 141 162 9,000  Level Cleveland Center
11:24AM 42.6247 -81.2772 73° East 141 162 9,000  Level Cleveland Center
11:25AM 42.6356 -81.2239 75° East 141 162 9,000  Level Cleveland Center
11:26AM 42.6442 -81.1758 76° East 146 168 9,000 -60 Level Cleveland Center
11:27AM 42.6547 -81.1253 74° East 141 162 8,900 -300 Descending Cleveland Center
11:28AM 42.6675 -81.0689 73° East 147 169 8,400 -480 Descending Cleveland Center
11:29AM 42.6803 -81.0097 74° East 152 175 8,000 -540 Descending Cleveland Center
11:30AM 42.6908 -80.9475 77° East 157 181 7,400 -480 Descending Cleveland Center
11:31AM 42.7058 -80.8911 70° East 163 188 7,100 -180 Descending Cleveland Center
11:32AM 42.7331 -80.8461 51° Northeast 148 170 7,100 -60 Level Cleveland Center
11:33AM 42.7600 -80.7981 53° Northeast 149 171 7,000 -60 Descending Cleveland Center
11:34AM 42.7853 -80.7586 49° Northeast 139 160 7,000 -240 Level Cleveland Center
11:35AM 42.8164 -80.7247 39° Northeast 128 147 6,600 -420 Descending Cleveland Center
11:36AM 42.8436 -80.6936 40° Northeast 133 153 6,200 -600 Descending Cleveland Center
11:38AM 42.9000 -80.5833 55° Northeast 160 184 4,900 -720 Descending Toronto Center